createdAt,value
2022-12-22T07:28:53.863Z,-9.17
2022-12-22T07:33:57.830Z,-9.19
2022-12-22T07:39:01.396Z,-9.19
2022-12-22T07:44:06.669Z,-9.09
2022-12-22T07:49:33.474Z,-9.12
2022-12-22T07:54:41.603Z,-9.09
2022-12-22T07:59:47.155Z,-9.07
2022-12-22T08:05:09.695Z,-9.07
2022-12-22T08:10:13.370Z,-8.91
2022-12-22T08:15:18.114Z,-8.91
2022-12-22T08:20:21.500Z,-8.83
2022-12-22T08:25:32.798Z,-8.80
2022-12-22T08:30:41.079Z,-8.75
2022-12-22T08:35:44.697Z,-8.80
2022-12-22T08:40:48.471Z,-8.69
2022-12-22T08:45:53.219Z,-8.64
2022-12-22T08:50:56.747Z,-8.61
2022-12-22T08:56:03.613Z,-8.68
2022-12-22T09:01:17.086Z,-8.70
2022-12-22T09:06:27.473Z,-8.62
2022-12-22T09:11:32.850Z,-8.58
2022-12-22T09:16:49.108Z,-8.52
2022-12-22T09:33:02.616Z,-8.55
2022-12-22T09:38:06.887Z,-8.46
2022-12-22T09:43:15.174Z,-8.38
2022-12-22T09:48:49.750Z,-8.39
2022-12-22T09:53:58.741Z,-8.33
2022-12-22T09:59:10.306Z,-8.32
2022-12-22T10:04:22.376Z,-8.25
2022-12-22T10:09:49.553Z,-8.11
2022-12-22T10:14:55.293Z,-7.99
2022-12-22T10:20:22.101Z,-7.97
2022-12-22T10:25:52.587Z,-7.91
2022-12-22T10:31:12.142Z,-7.97
2022-12-22T10:49:21.774Z,-7.67
2022-12-22T11:01:10.742Z,-7.65
2022-12-22T11:06:37.764Z,-7.74
2022-12-22T11:11:52.231Z,-7.56
2022-12-22T11:17:06.045Z,-7.59
2022-12-22T11:22:16.936Z,-7.57
2022-12-22T11:27:29.617Z,-7.46
2022-12-22T11:32:48.576Z,-7.37
2022-12-22T11:45:08.084Z,-7.18
2022-12-22T11:50:59.856Z,-7.05
2022-12-22T11:55:59.367Z,-7.14
2022-12-22T12:01:22.308Z,-7.07
2022-12-22T12:06:46.821Z,-6.94
2022-12-22T12:11:59.309Z,-6.92
2022-12-22T12:17:08.648Z,-6.86
2022-12-22T12:22:35.452Z,-6.96
2022-12-22T12:34:03.517Z,-7.00
2022-12-22T12:39:20.294Z,-7.03
2022-12-22T12:44:27.804Z,-7.04
2022-12-22T12:50:03.128Z,-7.05
2022-12-22T12:55:29.708Z,-7.11
2022-12-22T13:00:49.792Z,-7.13
2022-12-22T13:05:57.180Z,-7.13
2022-12-22T13:12:01.232Z,-7.14
2022-12-22T13:17:16.806Z,-7.16
2022-12-22T13:22:23.082Z,-7.22
2022-12-22T13:27:27.773Z,-7.25
2022-12-22T13:32:35.812Z,-7.30
2022-12-22T13:37:44.906Z,-7.35
2022-12-22T13:42:53.289Z,-7.31
2022-12-22T13:47:57.074Z,-7.39
2022-12-22T13:53:04.023Z,-7.37
2022-12-22T13:58:11.260Z,-7.34
2022-12-22T14:03:50.225Z,-7.31
2022-12-22T14:08:48.544Z,-7.35
2022-12-22T14:13:55.015Z,-7.41
2022-12-22T14:19:02.783Z,-7.45
2022-12-22T14:24:13.518Z,-7.42
2022-12-22T14:29:19.557Z,-7.37
2022-12-22T14:34:31.544Z,-7.45
2022-12-22T14:39:37.222Z,-7.46
2022-12-22T14:44:44.735Z,-7.53
2022-12-22T14:49:50.008Z,-7.57
2022-12-22T14:54:59.049Z,-7.60
2022-12-22T15:00:06.213Z,-7.57
2022-12-22T15:05:11.660Z,-7.66
2022-12-22T15:10:20.514Z,-7.65
2022-12-22T15:15:34.040Z,-7.64
2022-12-22T15:20:39.508Z,-7.69
2022-12-22T15:25:50.889Z,-7.62
2022-12-22T15:30:57.255Z,-7.67
2022-12-22T15:36:01.218Z,-7.73
2022-12-22T15:41:07.778Z,-7.72
2022-12-22T15:46:14.193Z,-7.68
2022-12-22T15:51:22.529Z,-7.66
2022-12-22T15:56:28.797Z,-7.70
2022-12-22T16:01:34.187Z,-7.93
2022-12-22T16:06:40.212Z,-7.95
2022-12-22T16:11:45.239Z,-8.00
2022-12-22T16:16:48.805Z,-8.30
2022-12-22T16:21:54.747Z,-8.40
2022-12-22T16:27:00.343Z,-8.36
2022-12-22T16:32:17.679Z,-8.49
2022-12-22T16:37:21.537Z,-8.42
2022-12-22T16:47:50.553Z,-8.70
2022-12-22T16:52:54.432Z,-8.73
2022-12-22T16:58:17.427Z,-8.90
2022-12-22T17:03:23.832Z,-8.95
2022-12-22T17:08:30.449Z,-9.06
2022-12-22T17:13:35.841Z,-8.98
2022-12-22T17:18:39.293Z,-8.94
2022-12-22T17:23:46.125Z,-8.95
2022-12-22T17:28:52.336Z,-8.95
2022-12-22T17:34:08.555Z,-8.94
2022-12-22T17:39:17.863Z,-8.86
2022-12-22T17:44:24.149Z,-9.07
2022-12-22T17:49:56.117Z,-9.26
2022-12-22T17:54:59.739Z,-9.28
2022-12-22T18:00:21.988Z,-9.41
2022-12-22T18:05:29.978Z,-9.42
2022-12-22T18:10:34.963Z,-9.42
2022-12-22T18:15:38.449Z,-9.57
2022-12-22T18:20:44.017Z,-9.52
2022-12-22T18:25:47.780Z,-9.64
2022-12-22T18:30:51.228Z,-9.69
2022-12-22T18:35:56.222Z,-9.83
2022-12-22T18:40:59.768Z,-9.88
2022-12-22T18:46:03.316Z,-9.87
2022-12-22T18:51:17.550Z,-9.88
2022-12-22T18:56:21.449Z,-9.73
2022-12-22T19:01:28.313Z,-9.64
2022-12-22T19:06:34.968Z,-9.61
2022-12-22T19:11:38.584Z,-9.77
2022-12-22T19:17:13.117Z,-10.00
2022-12-22T19:40:31.618Z,-10.63
2022-12-22T19:45:36.244Z,-10.70
2022-12-22T19:50:41.068Z,-10.80
2022-12-22T19:56:10.978Z,-10.94
2022-12-22T20:01:16.259Z,-11.05
2022-12-22T20:06:24.431Z,-11.13
2022-12-22T20:11:29.093Z,-11.26
2022-12-22T20:16:46.615Z,-11.32
2022-12-22T20:21:51.375Z,-11.36
2022-12-22T20:26:55.579Z,-11.32
2022-12-22T20:32:01.303Z,-11.35
2022-12-22T20:37:34.213Z,-11.45
2022-12-22T20:42:38.948Z,-11.43
2022-12-22T20:47:44.732Z,-11.32
2022-12-22T20:52:48.799Z,-11.18
2022-12-22T20:57:52.865Z,-11.09
2022-12-22T21:02:59.933Z,-11.02
2022-12-22T21:08:06.592Z,-10.94
2022-12-22T21:13:15.519Z,-10.93
2022-12-22T21:18:23.956Z,-10.80
2022-12-22T21:23:27.977Z,-10.90
2022-12-22T21:28:33.973Z,-10.97
2022-12-22T21:33:39.059Z,-11.00
2022-12-22T21:38:43.104Z,-10.94
2022-12-22T21:43:49.070Z,-10.91
2022-12-22T21:48:54.570Z,-10.81
2022-12-22T21:53:58.511Z,-10.76
2022-12-22T21:59:04.063Z,-10.72
2022-12-22T22:04:10.505Z,-10.62
2022-12-22T22:09:14.545Z,-10.70
2022-12-22T22:14:18.177Z,-10.77
2022-12-22T22:19:23.280Z,-10.73
2022-12-22T22:24:26.891Z,-10.75
2022-12-22T22:29:34.189Z,-10.66
2022-12-22T22:34:39.060Z,-10.65
2022-12-22T22:39:43.101Z,-10.68
2022-12-22T22:44:48.368Z,-10.77
